createdAt,value
2022-10-28T00:02:00.495Z,101053.13
2022-10-28T00:07:06.675Z,101063.38
2022-10-28T00:09:37.110Z,101070.53
2022-10-28T00:12:07.357Z,101069.41
2022-10-28T00:14:37.636Z,101066.94
2022-10-28T00:17:07.697Z,101067.25
2022-10-28T00:19:37.807Z,101065.91
2022-10-28T00:22:07.808Z,101063.47
2022-10-28T00:24:37.853Z,101071.44
2022-10-28T00:27:07.832Z,101069.50
2022-10-28T00:29:38.159Z,101072.28
2022-10-28T00:32:08.525Z,101062.03
2022-10-28T00:34:38.686Z,101077.16
2022-10-28T00:37:08.950Z,101066.75
2022-10-28T00:39:39.428Z,101059.28
2022-10-28T00:42:09.664Z,101067.25
2022-10-28T00:44:50.699Z,101070.00
2022-10-28T00:47:31.348Z,101076.34
2022-10-28T00:50:37.984Z,101076.66
2022-10-28T00:53:28.732Z,101077.16
2022-10-28T00:56:01.583Z,101079.09
2022-10-28T00:58:32.367Z,101081.56
2022-10-28T01:01:03.066Z,101083.81
2022-10-28T01:03:33.419Z,101086.25
2022-10-28T01:06:04.214Z,101079.09
2022-10-28T01:08:34.567Z,101079.94
2022-10-28T01:11:33.696Z,101086.25
2022-10-28T01:14:06.681Z,101087.09
2022-10-28T01:16:43.256Z,101081.56
2022-10-28T01:19:32.308Z,101088.72
2022-10-28T01:22:10.210Z,101099.75
2022-10-28T01:25:10.715Z,101098.13
2022-10-28T01:27:58.762Z,101087.88
2022-10-28T01:30:36.602Z,101089.84
2022-10-28T01:33:26.201Z,101093.13
2022-10-28T01:36:04.524Z,101093.91
2022-10-28T01:38:53.121Z,101098.63
2022-10-28T01:41:37.216Z,101106.25
2022-10-28T01:45:05.832Z,101103.50
2022-10-28T01:47:51.927Z,101102.69
2022-10-28T01:50:34.430Z,101116.19
2022-10-28T01:53:09.957Z,101111.78
2022-10-28T01:55:44.707Z,101129.38
2022-10-28T01:58:20.034Z,101122.81
2022-10-28T02:00:51.705Z,101122.81
2022-10-28T02:03:22.473Z,101124.78
2022-10-28T02:05:57.856Z,101120.91
2022-10-28T02:08:48.946Z,101114.25
2022-10-28T02:11:25.018Z,101123.84
2022-10-28T02:14:24.905Z,101127.13
2022-10-28T02:17:21.869Z,101137.66
2022-10-28T02:19:57.216Z,101135.72
2022-10-28T02:22:48.831Z,101137.03
2022-10-28T02:25:49.065Z,101132.97
2022-10-28T02:28:27.488Z,101140.91
2022-10-28T02:31:23.605Z,101139.78
2022-10-28T02:33:59.694Z,101144.00
2022-10-28T02:36:36.493Z,101145.94
2022-10-28T02:39:09.025Z,101140.09
2022-10-28T02:41:39.147Z,101145.59
2022-10-28T02:44:16.038Z,101149.53
2022-10-28T02:46:50.010Z,101137.31
2022-10-28T02:49:20.207Z,101140.91
2022-10-28T02:52:02.967Z,101134.28
2022-10-28T02:54:44.457Z,101141.47
2022-10-28T02:57:21.503Z,101138.97
2022-10-28T02:59:59.714Z,101131.81
2022-10-28T03:02:31.298Z,101139.78
2022-10-28T03:05:01.452Z,101140.63
2022-10-28T03:07:31.493Z,101126.81
2022-10-28T03:10:01.479Z,101132.03
2022-10-28T03:12:31.543Z,101128.75
2022-10-28T03:15:01.910Z,101123.75
2022-10-28T03:17:32.176Z,101127.31
2022-10-28T03:20:02.308Z,101114.66
2022-10-28T03:22:32.330Z,101122.63
2022-10-28T03:25:02.353Z,101119.03
2022-10-28T03:27:32.385Z,101116.59
2022-10-28T03:30:02.403Z,101119.88
2022-10-28T03:32:32.435Z,101111.59
2022-10-28T03:35:02.471Z,101108.00
2022-10-28T03:37:32.542Z,101106.59
2022-10-28T03:40:04.663Z,101110.16
2022-10-28T03:42:38.849Z,101104.94
2022-10-28T03:45:12.415Z,101103.00
2022-10-28T03:47:43.062Z,101105.13
2022-10-28T03:50:13.452Z,101104.28
2022-10-28T03:52:46.435Z,101097.13
2022-10-28T03:55:16.679Z,101087.44
2022-10-28T03:57:46.701Z,101089.69
2022-10-28T04:00:17.594Z,101085.47
2022-10-28T04:02:55.376Z,101085.81
2022-10-28T04:05:25.681Z,101081.59
2022-10-28T04:07:56.319Z,101079.34
2022-10-28T04:10:26.365Z,101073.81
2022-10-28T04:12:56.641Z,101069.28
2022-10-28T04:15:27.029Z,101076.25
2022-10-28T04:17:57.284Z,101062.44
2022-10-28T04:20:28.111Z,101066.03
2022-10-28T04:22:58.789Z,101061.00
2022-10-28T04:25:30.375Z,101049.97
2022-10-28T04:28:00.648Z,101042.81
2022-10-28T04:30:30.629Z,101042.81
2022-10-28T04:33:00.677Z,101041.34
2022-10-28T04:35:30.738Z,101032.28
2022-10-28T04:38:00.799Z,101020.09
2022-10-28T04:40:30.806Z,101018.47
2022-10-28T04:43:00.820Z,101015.72
2022-10-28T04:45:30.883Z,101014.56
2022-10-28T04:48:03.023Z,101007.09
2022-10-28T04:50:33.278Z,101007.94
2022-10-28T04:53:13.786Z,100997.34
2022-10-28T04:55:43.974Z,100994.41
2022-10-28T04:58:14.188Z,100994.13
2022-10-28T05:00:44.213Z,100989.38
2022-10-28T05:03:14.253Z,100980.59
2022-10-28T05:05:44.287Z,100979.19
2022-10-28T05:08:14.446Z,100977.53
2022-10-28T05:10:44.628Z,100962.63
2022-10-28T05:13:14.631Z,100965.38
2022-10-28T05:15:44.917Z,100957.88
2022-10-28T05:18:14.905Z,100963.41
2022-10-28T05:20:46.031Z,100949.94
2022-10-28T05:23:16.678Z,100939.06
2022-10-28T05:25:46.903Z,100934.16
2022-10-28T05:28:17.375Z,100925.38
2022-10-28T05:30:47.968Z,100929.47
2022-10-28T05:33:18.239Z,100919.72
2022-10-28T05:35:48.827Z,100922.00
2022-10-28T05:38:19.034Z,100924.75
2022-10-28T05:40:49.235Z,100924.41
2022-10-28T05:43:19.446Z,100926.38
2022-10-28T05:46:00.461Z,100906.72
2022-10-28T05:48:30.919Z,100910.63
2022-10-28T05:51:01.063Z,100902.81
2022-10-28T05:53:31.128Z,100894.53
2022-10-28T05:56:01.126Z,100894.25
2022-10-28T05:58:31.140Z,100895.88
2022-10-28T06:01:01.160Z,100891.97
2022-10-28T06:03:31.444Z,100893.56
2022-10-28T06:06:02.110Z,100884.50
2022-10-28T06:08:32.795Z,100881.72
2022-10-28T06:11:02.433Z,100873.13
2022-10-28T06:13:32.602Z,100876.72
2022-10-28T06:16:02.788Z,100869.22
2022-10-28T06:18:33.106Z,100879.47
2022-10-28T06:21:03.425Z,100870.06
2022-10-28T06:23:33.536Z,100859.00
2022-10-28T06:26:06.154Z,100862.91
2022-10-28T06:28:36.558Z,100861.75
2022-10-28T06:31:09.740Z,100862.25
2022-10-28T06:33:39.893Z,100860.63
2022-10-28T06:36:10.419Z,100859.00
2022-10-28T06:38:40.753Z,100856.75
2022-10-28T06:41:10.885Z,100857.53
2022-10-28T06:43:40.882Z,100858.66
2022-10-28T06:46:10.918Z,100850.09
2022-10-28T06:48:42.460Z,100845.19
2022-10-28T06:51:12.569Z,100844.06
2022-10-28T06:53:42.567Z,100833.00
2022-10-28T06:56:13.313Z,100829.13
2022-10-28T06:58:43.519Z,100820.84
2022-10-28T07:01:13.743Z,100814.19
2022-10-28T07:03:44.307Z,100812.34
2022-10-28T07:08:49.425Z,100802.28
2022-10-28T07:11:20.785Z,100792.38
2022-10-28T07:13:50.952Z,100796.94
2022-10-28T07:16:21.095Z,100785.09
2022-10-28T07:18:51.181Z,100789.78
2022-10-28T07:21:23.870Z,100780.84
2022-10-28T07:23:54.133Z,100780.84
2022-10-28T07:26:24.814Z,100773.41
2022-10-28T07:28:55.326Z,100770.94
2022-10-28T07:31:25.597Z,100770.31
2022-10-28T07:33:56.682Z,100761.53
2022-10-28T07:36:26.511Z,100755.69
2022-10-28T07:38:57.078Z,100756.00
2022-10-28T07:41:27.698Z,100753.72
2022-10-28T07:43:58.340Z,100754.56
2022-10-28T07:46:28.509Z,100745.44
2022-10-28T07:48:58.717Z,100748.19
2022-10-28T07:51:29.203Z,100735.53
2022-10-28T07:54:02.491Z,100733.25
2022-10-28T07:56:32.724Z,100725.31
2022-10-28T07:59:03.330Z,100720.28
2022-10-28T08:01:33.591Z,100728.56
2022-10-28T08:04:03.866Z,100730.50
2022-10-28T08:06:34.011Z,100721.41
2022-10-28T08:09:04.190Z,100723.84
2022-10-28T08:11:34.387Z,100720.59
2022-10-28T08:14:05.436Z,100726.44
2022-10-28T08:16:35.630Z,100717.81
2022-10-28T08:19:07.815Z,100723.03
2022-10-28T08:21:38.170Z,100719.44
2022-10-28T08:24:08.495Z,100726.09
2022-10-28T08:26:38.684Z,100711.16
2022-10-28T08:29:10.246Z,100705.97
2022-10-28T08:31:41.125Z,100706.78
2022-10-28T08:34:11.407Z,100714.75
2022-10-28T08:36:41.659Z,100700.13
2022-10-28T08:39:11.904Z,100713.78
2022-10-28T08:41:55.355Z,100713.78
2022-10-28T08:44:52.716Z,100708.25
2022-10-28T08:47:25.821Z,100712.28
2022-10-28T08:50:07.926Z,100707.59
2022-10-28T08:52:47.145Z,100702.06
2022-10-28T08:55:23.351Z,100702.53
2022-10-28T08:58:19.515Z,100710.66
2022-10-28T09:00:55.722Z,100715.88
2022-10-28T09:03:34.373Z,100712.44
2022-10-28T09:06:10.260Z,100706.94
2022-10-28T09:08:50.922Z,100718.81
2022-10-28T09:11:42.157Z,100714.41
2022-10-28T09:14:24.272Z,100719.09
2022-10-28T09:17:12.094Z,100711.97
2022-10-28T09:19:48.536Z,100709.19
2022-10-28T09:22:42.054Z,100706.78
2022-10-28T09:25:43.324Z,100715.88
2022-10-28T09:28:30.029Z,100715.41
2022-10-28T09:31:28.563Z,100722.22
2022-10-28T09:34:04.823Z,100716.53
2022-10-28T09:36:45.759Z,100728.06
2022-10-28T09:39:30.596Z,100716.19
2022-10-28T09:42:06.253Z,100725.63
2022-10-28T09:44:47.391Z,100724.19
2022-10-28T09:47:44.852Z,100721.06
2022-10-28T09:50:21.532Z,100716.69
2022-10-28T09:53:00.406Z,100725.78
2022-10-28T09:55:31.513Z,100729.69
2022-10-28T09:58:02.173Z,100730.50
2022-10-28T10:00:32.419Z,100721.72
2022-10-28T10:03:02.868Z,100726.94
2022-10-28T10:05:40.113Z,100726.94
2022-10-28T10:08:14.565Z,100726.44
2022-10-28T10:11:16.546Z,100725.63
2022-10-28T10:13:47.420Z,100731.78
2022-10-28T10:16:50.067Z,100728.72
2022-10-28T10:19:20.429Z,100735.88
2022-10-28T10:21:56.502Z,100737.50
2022-10-28T10:24:34.265Z,100738.00
2022-10-28T10:27:21.762Z,100733.91
2022-10-28T10:29:54.933Z,100729.22
2022-10-28T10:32:25.059Z,100727.25
2022-10-28T10:35:28.682Z,100734.56
2022-10-28T10:38:01.635Z,100732.47
2022-10-28T10:40:38.320Z,100729.38
2022-10-28T10:43:36.500Z,100729.69
2022-10-28T10:46:07.959Z,100735.22
2022-10-28T10:48:38.594Z,100735.03
2022-10-28T10:51:14.903Z,100731.47
2022-10-28T10:53:51.774Z,100732.28
2022-10-28T10:56:30.899Z,100737.50
2022-10-28T10:59:05.943Z,100746.44
2022-10-28T11:01:41.033Z,100747.56
2022-10-28T11:04:19.675Z,100762.66
2022-10-28T11:06:54.618Z,100762.66
2022-10-28T11:09:40.578Z,100761.88
2022-10-28T11:12:39.321Z,100778.09
2022-10-28T11:15:18.705Z,100778.59
2022-10-28T11:18:23.559Z,100778.94
2022-10-28T11:21:09.913Z,100781.19
2022-10-28T11:23:46.249Z,100789.66
2022-10-28T11:26:40.326Z,100795.00
2022-10-28T11:29:13.290Z,100804.44
2022-10-28T11:31:55.904Z,100805.72
2022-10-28T11:34:49.970Z,100807.69
2022-10-28T11:37:29.706Z,100813.72
2022-10-28T11:40:15.869Z,100814.84
2022-10-28T11:43:10.016Z,100818.41
2022-10-28T11:46:10.940Z,100818.91
2022-10-28T11:48:47.073Z,100836.28
2022-10-28T11:51:56.782Z,100829.63
2022-10-28T11:54:48.262Z,100827.69
2022-10-28T11:57:26.553Z,100827.69
2022-10-28T12:00:35.601Z,100827.69
2022-10-28T12:03:23.922Z,100832.38
2022-10-28T12:06:03.577Z,100840.38
2022-10-28T12:08:51.748Z,100842.28
2022-10-28T12:11:36.098Z,100848.16
2022-10-28T12:14:17.884Z,100850.91
2022-10-28T12:16:57.246Z,100857.59
2022-10-28T12:19:39.719Z,100848.50
2022-10-28T12:22:09.900Z,100857.59
2022-10-28T12:24:42.111Z,100863.91
2022-10-28T12:27:26.548Z,100867.16
2022-10-28T12:30:06.839Z,100868.63
2022-10-28T12:32:47.258Z,100884.88
2022-10-28T12:35:23.980Z,100891.88
2022-10-28T12:37:57.282Z,100896.75
2022-10-28T12:40:32.690Z,100897.56
2022-10-28T12:43:26.471Z,100897.06
2022-10-28T12:45:59.030Z,100904.22
2022-10-28T12:48:59.836Z,100914.13
2022-10-28T12:51:37.961Z,100916.41
2022-10-28T12:54:10.913Z,100926.81
2022-10-28T12:56:47.104Z,100926.66
2022-10-28T12:59:43.009Z,100939.66
2022-10-28T13:02:37.743Z,100945.19
2022-10-28T13:05:09.226Z,100946.94
2022-10-28T13:07:53.535Z,100948.25
2022-10-28T13:10:50.685Z,100960.44
2022-10-28T13:13:51.153Z,100956.88
2022-10-28T13:16:56.334Z,100947.59
2022-10-28T13:19:38.171Z,100954.41
2022-10-28T13:22:16.994Z,100952.59
2022-10-28T13:25:11.255Z,100957.84
2022-10-28T13:27:42.062Z,100961.41
2022-10-28T13:30:21.214Z,100969.50
2022-10-28T13:33:07.412Z,100968.38
2022-10-28T13:35:39.314Z,100970.31
2022-10-28T13:38:15.113Z,100975.34
2022-10-28T13:40:45.293Z,100974.72
2022-10-28T13:43:53.511Z,100981.22
2022-10-28T13:47:01.000Z,100979.22
2022-10-28T13:49:39.838Z,100985.41
2022-10-28T13:52:10.343Z,100990.94
2022-10-28T13:54:46.231Z,100989.44
2022-10-28T13:57:35.238Z,100990.75
2022-10-28T14:00:10.506Z,100993.84
2022-10-28T14:02:58.532Z,100990.78
2022-10-28T14:05:49.051Z,100996.94
2022-10-28T14:08:30.746Z,100996.81
2022-10-28T14:11:09.599Z,100996.84
2022-10-28T14:13:49.535Z,101000.56
2022-10-28T14:16:41.579Z,101008.56
2022-10-28T14:19:11.800Z,101010.09
2022-10-28T14:22:02.062Z,101025.34
2022-10-28T14:24:39.382Z,101020.16
2022-10-28T14:27:14.119Z,101021.16
2022-10-28T14:29:59.815Z,101019.38
2022-10-28T14:32:36.131Z,101021.47
2022-10-28T14:35:19.023Z,101022.78
2022-10-28T14:37:58.409Z,101033.03
2022-10-28T14:40:52.009Z,101035.81
2022-10-28T14:43:40.374Z,101034.03
2022-10-28T14:46:29.174Z,101029.47
2022-10-28T14:49:01.948Z,101032.03
2022-10-28T14:51:46.251Z,101034.63
2022-10-28T14:54:26.648Z,101032.03
2022-10-28T14:56:59.790Z,101041.97
2022-10-28T14:59:39.978Z,101048.63
2022-10-28T15:02:24.185Z,101048.81
2022-10-28T15:05:05.645Z,101057.41
2022-10-28T15:07:38.100Z,101054.97
2022-10-28T15:10:25.556Z,101049.91
2022-10-28T15:12:58.236Z,101061.31
2022-10-28T15:15:34.569Z,101051.09
2022-10-28T15:18:21.099Z,101057.09
2022-10-28T15:20:53.308Z,101060.66
2022-10-28T15:23:25.781Z,101049.28
2022-10-28T15:26:16.795Z,101050.09
2022-10-28T15:28:47.036Z,101048.16
2022-10-28T15:31:19.279Z,101055.09
2022-10-28T15:33:49.480Z,101049.28
2022-10-28T15:36:25.812Z,101051.03
2022-10-28T15:39:20.139Z,101047.78
2022-10-28T15:44:03.092Z,101056.50
2022-10-28T15:46:35.335Z,101048.34
2022-10-28T15:49:05.721Z,101049.47
2022-10-28T15:51:35.979Z,101051.75
2022-10-28T15:54:22.128Z,101058.72
2022-10-28T15:57:02.054Z,101053.69
2022-10-28T15:59:32.452Z,101059.84
2022-10-28T16:02:03.784Z,101048.50
2022-10-28T16:04:36.795Z,101044.91
2022-10-28T16:07:11.711Z,101044.09
2022-10-28T16:09:52.252Z,101046.03
2022-10-28T16:12:26.942Z,101048.78
2022-10-28T16:14:57.083Z,101041.63
2022-10-28T16:17:33.604Z,101035.31
2022-10-28T16:20:22.963Z,101032.84
2022-10-28T16:22:53.709Z,101034.31
2022-10-28T16:25:25.359Z,101024.88
2022-10-28T16:27:56.780Z,101025.22
2022-10-28T16:30:27.271Z,101022.44
2022-10-28T16:32:59.766Z,101016.94
2022-10-28T16:35:29.949Z,101020.00
2022-10-28T16:38:00.180Z,101020.63
2022-10-28T16:40:50.235Z,101021.13
2022-10-28T16:43:26.800Z,101013.16
2022-10-28T16:45:59.368Z,101016.72
2022-10-28T16:48:32.107Z,101015.94
2022-10-28T16:51:15.011Z,101016.25
2022-10-28T16:53:49.114Z,101013.50
2022-10-28T16:56:20.000Z,101014.28
2022-10-28T16:58:50.314Z,101001.94
2022-10-28T17:01:24.126Z,101005.84
2022-10-28T17:03:54.252Z,101006.13
2022-10-28T17:06:24.303Z,101015.53
2022-10-28T17:09:02.972Z,101012.50
2022-10-28T17:11:33.885Z,101000.13
2022-10-28T17:14:04.221Z,100997.34
2022-10-28T17:16:36.001Z,101004.31
2022-10-28T17:19:09.394Z,101007.94
2022-10-28T17:21:39.620Z,101005.16
2022-10-28T17:24:09.948Z,100998.00
2022-10-28T17:26:40.128Z,100992.47
2022-10-28T17:29:12.519Z,100989.22
2022-10-28T17:31:43.010Z,100997.19
2022-10-28T17:34:31.742Z,100986.75
2022-10-28T17:37:01.916Z,100986.75
2022-10-28T17:39:32.331Z,100992.09
2022-10-28T17:42:03.067Z,100979.13
2022-10-28T17:44:33.354Z,100975.53
2022-10-28T17:47:03.736Z,100976.66
2022-10-28T17:49:36.399Z,100978.31
2022-10-28T17:52:06.722Z,100974.75
2022-10-28T17:54:37.014Z,100973.41
2022-10-28T17:57:07.505Z,100970.34
2022-10-28T17:59:37.651Z,100960.44
2022-10-28T18:02:08.057Z,100957.34
2022-10-28T18:04:38.386Z,100961.88
2022-10-28T18:07:08.663Z,100956.34
2022-10-28T18:09:39.248Z,100960.56
2022-10-28T18:12:09.811Z,100960.56
2022-10-28T18:14:39.972Z,100955.88
2022-10-28T18:17:10.211Z,100951.47
2022-10-28T18:19:40.448Z,100954.22
2022-10-28T18:22:10.662Z,100960.06
2022-10-28T18:24:40.973Z,100957.00
2022-10-28T18:27:11.194Z,100948.00
2022-10-28T18:29:41.359Z,100957.59
2022-10-28T18:32:11.522Z,100958.72
2022-10-28T18:34:41.667Z,100951.06
2022-10-28T18:37:13.897Z,100957.88
2022-10-28T18:39:44.138Z,100947.50
2022-10-28T18:42:17.770Z,100946.03
2022-10-28T18:44:51.157Z,100946.16
2022-10-28T18:47:21.335Z,100935.63
2022-10-28T18:49:51.464Z,100943.91
2022-10-28T18:52:21.729Z,100940.97
2022-10-28T18:54:51.893Z,100926.34
2022-10-28T18:57:22.158Z,100924.75
2022-10-28T19:02:47.570Z,100904.59
2022-10-28T19:05:18.320Z,100907.84
2022-10-28T19:07:48.553Z,100904.28
2022-10-28T19:10:19.029Z,100898.28
2022-10-28T19:12:53.010Z,100896.94
2022-10-28T19:15:23.459Z,100898.06
2022-10-28T19:17:55.759Z,100892.56
2022-10-28T19:20:26.956Z,100894.34
2022-10-28T19:22:57.383Z,100886.53
2022-10-28T19:25:27.861Z,100885.72
2022-10-28T19:27:57.929Z,100901.66
2022-10-28T19:30:28.216Z,100898.91
2022-10-28T19:32:58.391Z,100904.53
2022-10-28T19:35:28.703Z,100904.72
2022-10-28T19:37:58.916Z,100900.66
2022-10-28T19:40:29.116Z,100905.56
2022-10-28T19:43:00.031Z,100898.41
2022-10-28T19:45:30.242Z,100894.00
2022-10-28T19:48:04.165Z,100903.09
2022-10-28T19:50:34.351Z,100906.34
2022-10-28T19:53:04.611Z,100901.97
2022-10-28T19:55:34.596Z,100897.56
2022-10-28T19:58:04.606Z,100897.91
2022-10-28T20:00:34.615Z,100894.00
2022-10-28T20:03:04.663Z,100892.38
2022-10-28T20:05:34.710Z,100898.41
2022-10-28T20:08:04.885Z,100896.28
2022-10-28T20:10:35.254Z,100898.41
2022-10-28T20:13:05.619Z,100895.63
2022-10-28T20:15:35.899Z,100895.63
2022-10-28T20:18:06.121Z,100885.72
2022-10-28T20:20:37.644Z,100888.50
2022-10-28T20:23:07.811Z,100888.66
2022-10-28T20:25:38.000Z,100889.94
2022-10-28T20:28:08.190Z,100891.88
2022-10-28T20:30:38.564Z,100887.19
2022-10-28T20:33:08.779Z,100893.50
2022-10-28T20:35:38.836Z,100884.72
2022-10-28T20:38:08.864Z,100882.59
2022-10-28T20:40:38.904Z,100877.91
2022-10-28T20:43:08.850Z,100877.91
2022-10-28T20:45:38.889Z,100891.38
2022-10-28T20:48:09.576Z,100892.50
2022-10-28T20:50:39.627Z,100885.34
2022-10-28T20:53:09.889Z,100884.22
2022-10-28T20:55:46.727Z,100882.59
2022-10-28T20:58:17.008Z,100890.88
2022-10-28T21:00:47.220Z,100890.41
2022-10-28T21:03:17.961Z,100891.69
2022-10-28T21:05:48.488Z,100891.19
2022-10-28T21:08:18.657Z,100890.41
2022-10-28T21:10:48.804Z,100896.22
2022-10-28T21:13:19.516Z,100896.84
2022-10-28T21:15:54.553Z,100898.19
2022-10-28T21:18:28.138Z,100894.09
2022-10-28T21:21:00.244Z,100898.47
2022-10-28T21:23:31.506Z,100907.69
2022-10-28T21:26:06.163Z,100905.94
2022-10-28T21:28:38.125Z,100906.25
2022-10-28T21:31:13.864Z,100895.38
2022-10-28T21:33:45.352Z,100891.47
2022-10-28T21:36:21.021Z,100889.84
2022-10-28T21:38:54.821Z,100890.34
2022-10-28T21:41:26.035Z,100889.53
2022-10-28T21:43:56.805Z,100902.19
2022-10-28T21:46:27.256Z,100903.00
2022-10-28T21:48:57.516Z,100900.25
2022-10-28T21:51:27.677Z,100893.91
2022-10-28T21:53:58.083Z,100896.66
2022-10-28T21:56:28.375Z,100896.03
2022-10-28T21:58:58.632Z,100896.66
2022-10-28T22:01:28.898Z,100898.28
2022-10-28T22:03:59.895Z,100892.78
2022-10-28T22:06:30.074Z,100894.22
2022-10-28T22:09:01.512Z,100890.03
2022-10-28T22:11:31.602Z,100898.28
2022-10-28T22:14:04.050Z,100904.94
2022-10-28T22:16:36.568Z,100906.06
2022-10-28T22:19:10.737Z,100906.69
2022-10-28T22:21:41.438Z,100912.41
2022-10-28T22:24:13.086Z,100909.97
2022-10-28T22:26:43.273Z,100919.38
2022-10-28T22:29:13.684Z,100913.84
2022-10-28T22:31:44.226Z,100924.25
2022-10-28T22:34:14.591Z,100922.63
2022-10-28T22:36:47.063Z,100921.00
2022-10-28T22:39:17.466Z,100921.31
2022-10-28T22:41:47.733Z,100927.13
2022-10-28T22:44:18.638Z,100926.00
2022-10-28T22:46:48.996Z,100930.22
2022-10-28T22:49:19.152Z,100934.00
2022-10-28T22:51:49.209Z,100937.03
2022-10-28T22:54:19.505Z,100934.28
2022-10-28T22:56:49.873Z,100935.63
2022-10-28T22:59:20.136Z,100946.66
2022-10-28T23:01:51.116Z,100943.06
2022-10-28T23:04:21.762Z,100939.03
2022-10-28T23:06:52.002Z,100944.63
2022-10-28T23:09:22.809Z,100939.47
2022-10-28T23:11:52.974Z,100938.97
2022-10-28T23:14:23.440Z,100933.59
2022-10-28T23:16:53.705Z,100940.78
2022-10-28T23:19:23.763Z,100941.00
2022-10-28T23:21:53.792Z,100949.63
2022-10-28T23:24:23.822Z,100954.97
2022-10-28T23:26:53.943Z,100962.63
2022-10-28T23:29:24.342Z,100967.03
2022-10-28T23:31:54.619Z,100975.28
2022-10-28T23:34:24.936Z,100990.91
2022-10-28T23:36:56.330Z,100994.59
2022-10-28T23:39:26.660Z,101001.66
2022-10-28T23:41:57.262Z,100999.72
2022-10-28T23:44:27.493Z,101007.34
2022-10-28T23:46:57.886Z,101012.28
2022-10-28T23:49:28.113Z,101019.50
2022-10-28T23:51:58.328Z,101024.41
2022-10-28T23:54:28.995Z,101024.63
2022-10-28T23:56:59.233Z,101040.25
2022-10-28T23:59:29.580Z,101036.56
